createdAt,value
2022-08-20T00:02:17.951Z,7.93
2022-08-20T00:04:48.567Z,5.33
2022-08-20T00:07:19.445Z,5.40
2022-08-20T00:09:51.318Z,6.93
2022-08-20T00:12:22.003Z,5.00
2022-08-20T00:14:52.681Z,3.10
2022-08-20T00:17:23.384Z,8.97
2022-08-20T00:19:53.956Z,4.13
2022-08-20T00:22:25.338Z,5.20
2022-08-20T00:24:55.988Z,3.57
2022-08-20T00:27:26.763Z,3.57
2022-08-20T00:29:57.539Z,4.43
2022-08-20T00:32:28.201Z,3.83
2022-08-20T00:34:58.962Z,3.27
2022-08-20T00:37:29.696Z,4.43
2022-08-20T00:40:00.481Z,3.20
2022-08-20T00:42:31.191Z,3.90
2022-08-20T00:45:01.762Z,3.30
2022-08-20T00:47:32.441Z,7.33
2022-08-20T00:50:03.159Z,7.30
2022-08-20T00:52:34.198Z,5.97
2022-08-20T00:55:07.892Z,9.13
2022-08-20T00:57:46.110Z,4.30
2022-08-20T01:00:19.304Z,6.27
2022-08-20T01:02:51.473Z,5.80
2022-08-20T01:05:29.517Z,4.60
2022-08-20T01:08:16.843Z,8.43
2022-08-20T01:10:50.188Z,5.80
2022-08-20T01:13:24.259Z,3.73
2022-08-20T01:15:57.426Z,4.60
2022-08-20T01:18:29.782Z,8.30
2022-08-20T01:21:02.261Z,7.13
2022-08-20T01:23:36.878Z,7.73
2022-08-20T01:26:11.213Z,5.73
2022-08-20T01:28:44.793Z,3.43
2022-08-20T01:31:17.747Z,7.27
2022-08-20T01:33:50.807Z,7.30
2022-08-20T01:36:24.710Z,3.73
2022-08-20T01:38:55.522Z,4.57
2022-08-20T01:41:32.972Z,3.03
2022-08-20T01:44:04.337Z,2.60
2022-08-20T01:46:43.818Z,4.40
2022-08-20T01:49:15.686Z,3.30
2022-08-20T01:51:46.276Z,6.17
2022-08-20T01:54:18.873Z,3.80
2022-08-20T01:57:01.902Z,3.13
2022-08-20T01:59:33.265Z,3.47
2022-08-20T02:02:04.670Z,7.17
2022-08-20T02:04:36.023Z,5.93
2022-08-20T02:07:09.788Z,7.27
2022-08-20T02:09:41.425Z,3.67
2022-08-20T02:12:14.610Z,4.77
2022-08-20T02:14:47.009Z,5.60
2022-08-20T02:17:18.671Z,3.80
2022-08-20T02:19:52.175Z,8.37
2022-08-20T02:22:25.914Z,3.27
2022-08-20T02:24:56.504Z,3.20
2022-08-20T02:27:27.326Z,6.83
2022-08-20T02:29:58.045Z,3.57
2022-08-20T02:32:33.966Z,3.53
2022-08-20T02:35:02.462Z,6.70
2022-08-20T02:37:33.624Z,5.97
2022-08-20T02:40:05.916Z,3.10
2022-08-20T02:42:38.300Z,17.07
2022-08-20T02:45:13.285Z,4.70
2022-08-20T02:47:45.672Z,3.20
2022-08-20T02:50:19.460Z,6.10
2022-08-20T02:52:52.116Z,5.13
2022-08-20T02:55:27.199Z,5.57
2022-08-20T02:57:58.579Z,8.90
2022-08-20T03:00:32.078Z,12.97
2022-08-20T03:03:04.155Z,8.60
2022-08-20T03:05:34.837Z,4.20
2022-08-20T03:08:07.315Z,5.50
2022-08-20T03:10:39.568Z,3.60
2022-08-20T03:13:12.677Z,5.33
2022-08-20T03:15:46.229Z,10.03
2022-08-20T03:18:18.982Z,5.10
2022-08-20T03:20:51.327Z,4.57
2022-08-20T03:23:23.888Z,7.67
2022-08-20T03:25:54.500Z,9.93
2022-08-20T03:28:25.227Z,4.50
2022-08-20T03:30:58.055Z,3.53
2022-08-20T03:33:29.229Z,4.00
2022-08-20T03:36:00.238Z,5.77
2022-08-20T03:38:32.798Z,7.07
2022-08-20T03:41:04.170Z,3.73
2022-08-20T03:43:37.820Z,2.97
2022-08-20T03:46:22.899Z,4.07
2022-08-20T03:48:41.768Z,5.60
2022-08-20T03:51:12.348Z,2.47
2022-08-20T03:53:42.974Z,2.67
2022-08-20T03:56:13.578Z,3.67
2022-08-20T03:58:44.674Z,4.60
2022-08-20T04:01:45.674Z,2.73
2022-08-20T04:03:50.938Z,3.90
2022-08-20T04:06:20.269Z,2.73
2022-08-20T04:08:52.492Z,4.13
2022-08-20T04:11:24.431Z,4.60
2022-08-20T04:13:55.293Z,6.13
2022-08-20T04:16:27.597Z,3.50
2022-08-20T04:19:02.382Z,2.97
2022-08-20T04:21:32.723Z,3.77
2022-08-20T04:24:03.836Z,2.87
2022-08-20T04:26:36.530Z,3.03
2022-08-20T04:29:07.308Z,4.50
2022-08-20T04:31:37.880Z,3.80
2022-08-20T04:34:08.873Z,4.17
2022-08-20T04:36:40.744Z,5.50
2022-08-20T04:39:11.326Z,5.63
2022-08-20T04:41:42.543Z,4.03
2022-08-20T04:44:14.220Z,4.23
2022-08-20T04:46:45.023Z,3.80
2022-08-20T04:49:15.746Z,3.13
2022-08-20T04:51:46.625Z,5.80
2022-08-20T04:54:17.255Z,5.20
2022-08-20T04:56:48.357Z,4.13
2022-08-20T04:59:18.978Z,2.80
2022-08-20T05:01:49.558Z,3.40
2022-08-20T05:04:20.202Z,5.30
2022-08-20T05:06:50.980Z,3.40
2022-08-20T05:09:21.731Z,4.13
2022-08-20T05:11:52.489Z,7.03
2022-08-20T05:14:23.221Z,5.33
2022-08-20T05:16:55.498Z,5.00
2022-08-20T05:19:28.131Z,6.40
2022-08-20T05:21:58.918Z,2.90
2022-08-20T05:24:31.148Z,3.30
2022-08-20T05:27:03.198Z,3.90
2022-08-20T05:29:33.789Z,5.63
2022-08-20T05:32:04.967Z,7.80
2022-08-20T05:34:35.574Z,7.03
2022-08-20T05:37:07.741Z,4.90
2022-08-20T05:39:38.604Z,3.83
2022-08-20T05:42:09.742Z,7.57
2022-08-20T05:44:40.339Z,6.00
2022-08-20T05:47:13.411Z,6.60
2022-08-20T05:49:44.215Z,7.33
2022-08-20T05:52:14.857Z,4.00
2022-08-20T05:54:45.567Z,3.30
2022-08-20T05:57:20.241Z,3.57
2022-08-20T05:59:51.002Z,7.07
2022-08-20T06:05:29.105Z,7.43
2022-08-20T06:08:07.897Z,4.83
2022-08-20T06:10:32.224Z,4.50
2022-08-20T06:13:03.361Z,8.57
2022-08-20T06:15:35.613Z,6.40
2022-08-20T06:18:28.112Z,5.80
2022-08-20T06:20:42.690Z,5.23
2022-08-20T06:23:13.605Z,5.70
2022-08-20T06:25:44.442Z,4.97
2022-08-20T06:28:17.319Z,6.97
2022-08-20T06:30:48.270Z,5.43
2022-08-20T06:33:19.053Z,4.20
2022-08-20T06:35:50.824Z,5.67
2022-08-20T06:38:21.701Z,7.80
2022-08-20T06:40:52.620Z,6.10
2022-08-20T06:43:26.387Z,7.87
2022-08-20T06:45:57.893Z,4.77
2022-08-20T06:48:28.898Z,5.00
2022-08-20T06:50:59.943Z,4.97
2022-08-20T06:53:30.708Z,6.27
2022-08-20T06:56:01.897Z,6.27
2022-08-20T06:58:38.347Z,4.77
2022-08-20T07:01:09.443Z,4.30
2022-08-20T07:03:39.003Z,3.67
2022-08-20T07:06:11.535Z,4.10
2022-08-20T07:08:43.019Z,3.70
2022-08-20T07:11:14.223Z,4.70
2022-08-20T07:13:45.613Z,3.60
2022-08-20T07:16:16.266Z,3.93
2022-08-20T07:18:48.197Z,4.27
2022-08-20T07:21:19.069Z,3.63
2022-08-20T07:23:49.855Z,3.50
2022-08-20T07:26:20.921Z,4.33
2022-08-20T07:28:51.733Z,5.57
2022-08-20T07:31:40.110Z,3.87
2022-08-20T07:34:12.687Z,3.67
2022-08-20T07:36:44.136Z,5.53
2022-08-20T07:39:14.814Z,4.20
2022-08-20T07:41:50.448Z,4.10
2022-08-20T07:44:19.550Z,4.00
2022-08-20T07:46:50.474Z,6.13
2022-08-20T07:49:21.307Z,6.07
2022-08-20T07:51:52.113Z,5.17
2022-08-20T07:54:23.037Z,4.80
2022-08-20T07:59:33.895Z,4.60
2022-08-20T08:02:04.946Z,5.10
2022-08-20T08:04:37.496Z,5.23
2022-08-20T08:07:08.705Z,6.93
2022-08-20T08:09:40.173Z,4.53
2022-08-20T08:12:12.542Z,5.70
2022-08-20T08:14:45.865Z,4.43
2022-08-20T08:17:18.518Z,3.53
2022-08-20T08:19:52.115Z,3.70
2022-08-20T08:22:23.257Z,5.13
2022-08-20T08:24:57.424Z,5.10
2022-08-20T08:27:26.553Z,3.80
2022-08-20T08:29:57.373Z,4.90
2022-08-20T08:32:28.239Z,3.13
2022-08-20T08:34:59.172Z,5.00
2022-08-20T08:37:30.942Z,3.47
2022-08-20T08:40:02.928Z,3.57
2022-08-20T08:42:43.027Z,6.17
2022-08-20T08:45:12.287Z,3.57
2022-08-20T08:47:45.112Z,3.40
2022-08-20T08:50:33.364Z,3.43
2022-08-20T08:52:58.256Z,4.07
2022-08-20T08:55:31.312Z,2.93
2022-08-20T08:58:16.511Z,2.27
2022-08-20T09:00:37.999Z,2.60
2022-08-20T09:03:12.904Z,2.20
2022-08-20T09:05:46.556Z,3.67
2022-08-20T09:08:20.442Z,5.03
2022-08-20T09:10:51.770Z,2.03
2022-08-20T09:13:22.601Z,2.47
2022-08-20T09:15:53.280Z,3.07
2022-08-20T09:18:24.116Z,2.03
2022-08-20T09:20:55.113Z,1.70
2022-08-20T09:23:25.772Z,2.60
2022-08-20T09:25:56.518Z,1.60
2022-08-20T09:28:32.470Z,1.70
2022-08-20T09:30:59.770Z,1.80
2022-08-20T09:33:30.686Z,3.53
2022-08-20T09:36:01.620Z,2.57
2022-08-20T09:38:32.904Z,2.47
2022-08-20T09:41:03.707Z,1.80
2022-08-20T09:43:34.554Z,1.40
2022-08-20T09:46:05.348Z,1.10
2022-08-20T09:48:35.402Z,1.30
2022-08-20T09:51:06.486Z,1.80
2022-08-20T09:53:37.460Z,1.30
2022-08-20T09:56:10.109Z,1.13
2022-08-20T09:58:44.298Z,3.30
2022-08-20T10:01:18.332Z,2.23
2022-08-20T10:03:51.048Z,1.40
2022-08-20T10:06:22.732Z,1.47
2022-08-20T10:08:53.807Z,1.20
2022-08-20T10:11:24.561Z,1.10
2022-08-20T10:13:55.825Z,3.37
2022-08-20T10:19:06.050Z,2.57
2022-08-20T10:21:38.826Z,2.67
2022-08-20T10:24:09.263Z,2.07
2022-08-20T10:26:41.563Z,2.40
2022-08-20T10:29:12.289Z,1.93
2022-08-20T10:31:43.001Z,2.80
2022-08-20T10:34:13.580Z,1.20
2022-08-20T10:36:45.930Z,2.27
2022-08-20T10:39:17.058Z,3.50
2022-08-20T10:41:47.819Z,1.47
2022-08-20T10:44:18.900Z,0.98
2022-08-20T10:46:50.515Z,0.90
2022-08-20T10:49:22.865Z,1.10
2022-08-20T10:51:53.542Z,2.50
2022-08-20T10:54:24.287Z,1.50
2022-08-20T10:56:55.133Z,1.22
2022-08-20T10:59:25.830Z,1.35
2022-08-20T11:01:56.616Z,1.27
2022-08-20T11:04:27.579Z,1.27
2022-08-20T11:06:58.363Z,0.95
2022-08-20T11:09:30.950Z,2.10
2022-08-20T11:12:01.565Z,1.37
2022-08-20T11:14:32.353Z,1.67
2022-08-20T11:17:03.847Z,6.30
2022-08-20T11:19:34.846Z,1.13
2022-08-20T11:22:05.771Z,2.77
2022-08-20T11:24:36.930Z,2.20
2022-08-20T11:27:08.738Z,0.98
2022-08-20T11:29:40.224Z,2.77
2022-08-20T11:32:12.648Z,1.57
2022-08-20T11:34:43.326Z,1.22
2022-08-20T11:37:16.120Z,3.10
2022-08-20T11:39:47.663Z,1.17
2022-08-20T11:42:18.514Z,1.47
2022-08-20T11:44:49.243Z,1.30
2022-08-20T11:47:26.242Z,1.00
2022-08-20T11:50:01.830Z,1.32
2022-08-20T11:52:32.806Z,1.37
2022-08-20T11:55:03.896Z,0.72
2022-08-20T11:57:37.293Z,1.12
2022-08-20T12:00:13.399Z,1.10
2022-08-20T12:02:44.687Z,2.50
2022-08-20T12:05:17.008Z,0.98
2022-08-20T12:07:48.009Z,0.98
2022-08-20T12:10:19.167Z,1.67
2022-08-20T12:12:50.021Z,2.00
2022-08-20T12:15:21.135Z,2.30
2022-08-20T12:17:52.056Z,1.23
2022-08-20T12:20:23.750Z,1.10
2022-08-20T12:22:55.484Z,2.03
2022-08-20T12:25:26.962Z,4.93
2022-08-20T12:27:59.239Z,2.90
2022-08-20T12:30:30.383Z,2.02
2022-08-20T12:33:01.770Z,0.60
2022-08-20T12:35:32.593Z,5.78
2022-08-20T12:38:07.119Z,1.12
2022-08-20T12:40:39.143Z,0.72
2022-08-20T12:43:10.002Z,2.83
2022-08-20T12:45:40.829Z,0.70
2022-08-20T12:48:13.625Z,0.60
2022-08-20T12:50:46.400Z,1.42
2022-08-20T12:53:17.104Z,1.42
2022-08-20T12:55:48.754Z,4.12
2022-08-20T12:58:19.627Z,1.87
2022-08-20T13:00:51.447Z,3.10
2022-08-20T13:03:23.270Z,1.25
2022-08-20T13:05:54.260Z,1.00
2022-08-20T13:08:25.074Z,0.40
2022-08-20T13:10:55.922Z,0.85
2022-08-20T13:13:27.684Z,2.35
2022-08-20T13:15:58.334Z,1.77
2022-08-20T13:18:29.158Z,1.20
2022-08-20T13:20:59.953Z,2.15
2022-08-20T13:23:30.608Z,1.12
2022-08-20T13:26:01.303Z,1.82
2022-08-20T13:28:32.162Z,2.33
2022-08-20T13:31:03.010Z,2.10
2022-08-20T13:33:33.869Z,3.40
2022-08-20T13:36:04.957Z,0.98
2022-08-20T13:38:35.785Z,2.05
2022-08-20T13:41:06.633Z,2.25
2022-08-20T13:43:37.300Z,1.70
2022-08-20T13:46:08.457Z,1.67
2022-08-20T13:48:39.192Z,1.57
2022-08-20T13:51:09.952Z,1.62
2022-08-20T13:53:40.646Z,1.75
2022-08-20T13:56:13.071Z,1.52
2022-08-20T13:58:44.144Z,2.17
2022-08-20T14:01:14.856Z,5.17
2022-08-20T14:03:46.706Z,1.35
2022-08-20T14:06:36.278Z,1.12
2022-08-20T14:09:07.181Z,1.17
2022-08-20T14:11:37.935Z,1.75
2022-08-20T14:14:08.680Z,2.33
2022-08-20T14:16:40.095Z,1.02
2022-08-20T14:19:12.120Z,2.67
2022-08-20T14:21:42.839Z,3.15
2022-08-20T14:24:13.533Z,2.77
2022-08-20T14:26:44.386Z,2.47
2022-08-20T14:29:16.725Z,1.05
2022-08-20T14:31:47.421Z,1.20
2022-08-20T14:34:18.096Z,1.65
2022-08-20T14:36:48.938Z,3.95
2022-08-20T14:39:21.453Z,0.60
2022-08-20T14:41:52.430Z,1.67
2022-08-20T14:44:23.134Z,3.58
2022-08-20T14:46:53.984Z,3.60
2022-08-20T14:49:24.979Z,1.00
2022-08-20T14:51:55.847Z,3.33
2022-08-20T14:54:26.542Z,0.55
2022-08-20T14:57:01.946Z,2.27
2022-08-20T14:59:31.863Z,0.95
2022-08-20T15:02:02.836Z,1.92
2022-08-20T15:04:33.868Z,0.93
2022-08-20T15:07:08.057Z,1.37
2022-08-20T15:09:39.513Z,1.95
2022-08-20T15:12:10.971Z,1.82
2022-08-20T15:14:41.691Z,1.02
2022-08-20T15:17:13.926Z,0.78
2022-08-20T15:19:44.611Z,0.65
2022-08-20T15:22:15.518Z,1.65
2022-08-20T15:24:46.488Z,0.88
2022-08-20T15:27:22.674Z,3.72
2022-08-20T15:29:51.895Z,1.27
2022-08-20T15:32:23.060Z,2.50
2022-08-20T15:34:53.808Z,0.60
2022-08-20T15:37:26.706Z,1.02
2022-08-20T15:39:57.558Z,1.17
2022-08-20T15:42:28.312Z,0.85
2022-08-20T15:44:59.572Z,0.85
2022-08-20T15:47:32.574Z,0.75
2022-08-20T15:50:09.371Z,0.23
2022-08-20T15:52:42.410Z,3.15
2022-08-20T15:55:16.350Z,0.35
2022-08-20T15:57:53.314Z,3.40
2022-08-20T16:00:27.386Z,0.78
2022-08-20T16:06:13.859Z,1.15
2022-08-20T16:08:53.204Z,1.12
2022-08-20T16:11:28.793Z,0.88
2022-08-20T16:14:02.923Z,0.30
2022-08-20T16:16:37.836Z,0.40
2022-08-20T16:19:10.661Z,0.20
2022-08-20T16:21:44.353Z,0.30
2022-08-20T16:24:15.309Z,0.20
2022-08-20T16:27:01.115Z,0.62
2022-08-20T16:29:40.201Z,0.62
2022-08-20T16:32:14.335Z,0.30
2022-08-20T16:34:47.991Z,0.80
2022-08-20T16:37:23.864Z,2.10
2022-08-20T16:39:58.538Z,0.47
2022-08-20T16:42:33.362Z,0.40
2022-08-20T16:45:07.736Z,0.65
2022-08-20T16:47:40.897Z,0.25
2022-08-20T16:50:16.185Z,1.32
2022-08-20T16:52:50.343Z,1.47
2022-08-20T16:55:23.481Z,0.50
2022-08-20T16:57:54.989Z,0.70
2022-08-20T17:00:30.145Z,0.65
2022-08-20T17:03:03.520Z,4.40
2022-08-20T17:05:46.108Z,0.30
2022-08-20T17:08:25.251Z,1.10
2022-08-20T17:11:03.993Z,1.00
2022-08-20T17:13:37.865Z,3.37
2022-08-20T17:16:11.499Z,0.27
2022-08-20T17:18:44.134Z,0.10
2022-08-20T17:21:20.298Z,1.23
2022-08-20T17:23:56.308Z,0.28
2022-08-20T17:26:29.447Z,1.00
2022-08-20T17:29:02.578Z,0.40
2022-08-20T17:31:39.414Z,0.88
2022-08-20T17:34:18.181Z,0.10
2022-08-20T17:36:56.288Z,0.10
2022-08-20T17:39:29.731Z,0.30
2022-08-20T17:42:06.719Z,0.30
2022-08-20T17:44:40.735Z,0.53
2022-08-20T17:47:14.380Z,3.05
2022-08-20T17:49:57.445Z,0.80
2022-08-20T17:52:23.562Z,1.23
2022-08-20T17:54:55.863Z,0.67
2022-08-20T17:57:29.554Z,0.43
2022-08-20T18:00:03.373Z,2.83
2022-08-20T18:02:34.823Z,1.60
2022-08-20T18:05:09.757Z,2.45
2022-08-20T18:07:43.793Z,0.67
2022-08-20T18:10:17.708Z,0.20
2022-08-20T18:12:51.580Z,1.03
2022-08-20T18:15:25.665Z,0.20
2022-08-20T18:18:19.259Z,0.10
2022-08-20T18:21:03.681Z,3.30
2022-08-20T18:23:40.393Z,0.73
2022-08-20T18:28:54.191Z,0.70
2022-08-20T18:31:31.751Z,0.20
2022-08-20T18:34:12.699Z,0.93
2022-08-20T18:36:45.820Z,1.80
2022-08-20T18:39:28.149Z,0.50
2022-08-20T18:42:02.086Z,0.97
2022-08-20T18:44:38.124Z,2.97
2022-08-20T18:47:11.887Z,2.20
2022-08-20T18:49:43.010Z,0.30
2022-08-20T18:52:16.321Z,1.33
2022-08-20T18:54:53.123Z,3.30
2022-08-20T18:57:26.936Z,0.30
2022-08-20T19:00:04.656Z,1.60
2022-08-20T19:02:37.342Z,3.87
2022-08-20T19:05:11.333Z,1.00
2022-08-20T19:07:48.907Z,3.37
2022-08-20T19:10:46.465Z,0.80
2022-08-20T19:13:53.252Z,0.20
2022-08-20T19:19:06.210Z,1.67
2022-08-20T19:21:39.762Z,3.10
2022-08-20T19:24:13.311Z,1.07
2022-08-20T19:26:47.131Z,0.33
2022-08-20T19:29:20.997Z,0.43
2022-08-20T19:31:53.251Z,1.03
2022-08-20T19:34:26.484Z,0.20
2022-08-20T19:37:02.169Z,0.20
2022-08-20T19:39:35.178Z,1.60
2022-08-20T19:42:11.069Z,0.20
2022-08-20T19:44:46.558Z,2.00
2022-08-20T19:47:20.207Z,0.40
2022-08-20T19:49:56.049Z,1.40
2022-08-20T19:52:32.996Z,0.20
2022-08-20T19:55:04.361Z,1.57
2022-08-20T19:57:35.662Z,0.40
2022-08-20T20:00:11.838Z,0.30
2022-08-20T20:02:42.606Z,0.40
2022-08-20T20:05:14.332Z,0.27
2022-08-20T20:07:48.131Z,1.60
2022-08-20T20:10:31.850Z,1.03
2022-08-20T20:13:02.197Z,1.50
2022-08-20T20:15:33.158Z,0.30
2022-08-20T20:18:04.116Z,0.40
2022-08-20T20:20:38.632Z,0.47
2022-08-20T20:23:18.447Z,0.60
2022-08-20T20:28:30.618Z,0.40
2022-08-20T20:31:10.579Z,0.83
2022-08-20T20:33:44.479Z,2.13
2022-08-20T20:36:18.245Z,0.40
2022-08-20T20:38:57.991Z,0.30
2022-08-20T20:41:31.294Z,0.40
2022-08-20T20:44:04.368Z,0.73
2022-08-20T20:46:37.793Z,0.30
2022-08-20T20:49:19.186Z,1.13
2022-08-20T20:51:58.912Z,0.50
2022-08-20T20:54:33.737Z,0.33
2022-08-20T20:57:07.918Z,0.63
2022-08-20T20:59:41.126Z,0.63
2022-08-20T21:02:12.240Z,0.40
2022-08-20T21:04:44.752Z,1.60
2022-08-20T21:07:17.435Z,0.97
2022-08-20T21:09:50.449Z,1.43
2022-08-20T21:12:21.847Z,0.20
2022-08-20T21:14:53.509Z,1.00
2022-08-20T21:17:25.138Z,0.40
2022-08-20T21:19:55.735Z,2.20
2022-08-20T21:22:26.319Z,1.13
2022-08-20T21:24:56.935Z,0.70
2022-08-20T21:27:29.210Z,2.47
2022-08-20T21:30:00.375Z,2.80
2022-08-20T21:32:31.078Z,2.87
2022-08-20T21:35:01.784Z,1.47
2022-08-20T21:37:33.482Z,5.80
2022-08-20T21:40:05.192Z,2.20
2022-08-20T21:42:37.037Z,2.33
2022-08-20T21:45:11.729Z,0.20
2022-08-20T21:47:42.884Z,1.50
2022-08-20T21:50:16.195Z,3.20
2022-08-20T21:52:58.548Z,1.37
2022-08-20T21:55:22.250Z,0.30
2022-08-20T21:57:52.925Z,1.23
2022-08-20T22:00:45.416Z,2.23
2022-08-20T22:03:16.742Z,2.33
2022-08-20T22:05:49.629Z,0.27
2022-08-20T22:08:21.209Z,0.53
2022-08-20T22:10:54.659Z,0.20
2022-08-20T22:13:26.293Z,0.30
2022-08-20T22:15:56.886Z,0.63
2022-08-20T22:18:27.778Z,2.43
2022-08-20T22:20:58.544Z,0.53
2022-08-20T22:23:29.256Z,3.07
2022-08-20T22:25:59.838Z,1.40
2022-08-20T22:28:30.462Z,1.90
2022-08-20T22:31:01.593Z,1.90
2022-08-20T22:33:34.193Z,2.13
2022-08-20T22:36:07.159Z,4.33
2022-08-20T22:38:37.945Z,1.13
2022-08-20T22:41:09.928Z,1.80
2022-08-20T22:43:46.218Z,1.20
2022-08-20T22:46:15.100Z,0.30
2022-08-20T22:48:46.722Z,2.00
2022-08-20T22:51:24.105Z,2.63
2022-08-20T22:53:54.843Z,1.73
2022-08-20T22:56:25.421Z,0.70
2022-08-20T22:58:58.350Z,4.03
2022-08-20T23:01:31.581Z,1.37
2022-08-20T23:04:05.616Z,0.70
2022-08-20T23:06:36.344Z,1.30
2022-08-20T23:09:07.113Z,1.83
2022-08-20T23:11:37.732Z,3.87
2022-08-20T23:14:08.323Z,2.57
2022-08-20T23:16:42.107Z,0.67
2022-08-20T23:19:15.390Z,0.40
2022-08-20T23:21:46.025Z,0.40
2022-08-20T23:24:16.650Z,1.40
2022-08-20T23:26:52.884Z,0.47
2022-08-20T23:29:22.606Z,0.93
2022-08-20T23:34:30.093Z,2.97
2022-08-20T23:37:01.262Z,1.17
2022-08-20T23:39:32.450Z,1.03
2022-08-20T23:42:03.719Z,2.67
2022-08-20T23:44:34.301Z,2.27
2022-08-20T23:47:05.780Z,0.97
2022-08-20T23:49:36.439Z,3.30
2022-08-20T23:52:07.788Z,1.60
2022-08-20T23:54:38.398Z,1.13
2022-08-20T23:57:09.408Z,0.70
2022-08-20T23:59:40.047Z,1.80
